createdAt,value
2018-11-29T00:01:10.693Z,16.07
2018-11-29T00:03:42.881Z,22.57
2018-11-29T00:06:15.097Z,20.43
2018-11-29T00:08:47.722Z,19.50
2018-11-29T00:11:20.307Z,22.90
2018-11-29T00:13:53.588Z,19.93
2018-11-29T00:16:26.302Z,14.30
2018-11-29T00:18:58.864Z,24.47
2018-11-29T00:21:32.688Z,20.92
2018-11-29T00:24:05.136Z,17.43
2018-11-29T00:26:38.263Z,16.17
2018-11-29T00:29:11.345Z,11.63
2018-11-29T00:31:44.732Z,16.53
2018-11-29T00:34:17.477Z,17.75
2018-11-29T00:36:51.555Z,31.40
2018-11-29T00:39:24.604Z,20.53
2018-11-29T00:41:57.472Z,15.87
2018-11-29T00:44:30.307Z,14.63
2018-11-29T00:47:03.971Z,14.63
2018-11-29T00:49:36.727Z,17.57
2018-11-29T00:52:09.361Z,16.03
2018-11-29T00:54:42.143Z,16.03
2018-11-29T00:57:16.262Z,13.47
2018-11-29T00:59:49.621Z,14.97
2018-11-29T01:02:22.723Z,16.93
2018-11-29T01:04:57.440Z,21.10
2018-11-29T01:07:30.772Z,23.63
2018-11-29T01:10:03.579Z,20.65
2018-11-29T01:12:37.227Z,18.33
2018-11-29T01:15:11.942Z,12.77
2018-11-29T01:17:45.792Z,56.77
2018-11-29T01:20:22.008Z,39.40
2018-11-29T01:22:54.874Z,17.07
2018-11-29T01:25:27.740Z,16.33
2018-11-29T01:28:00.302Z,15.97
2018-11-29T01:33:21.867Z,19.50
2018-11-29T01:35:54.058Z,18.57
2018-11-29T01:38:27.243Z,13.17
2018-11-29T01:40:59.946Z,18.83
2018-11-29T01:43:32.737Z,16.80
2018-11-29T01:46:06.069Z,18.60
2018-11-29T01:48:39.122Z,19.43
2018-11-29T01:51:11.692Z,16.97
2018-11-29T01:53:44.390Z,16.42
2018-11-29T01:56:17.177Z,15.80
2018-11-29T01:58:51.867Z,13.33
2018-11-29T02:01:25.096Z,15.57
2018-11-29T02:03:58.750Z,24.07
2018-11-29T02:06:31.076Z,15.30
2018-11-29T02:09:05.016Z,15.20
2018-11-29T02:11:38.118Z,14.37
2018-11-29T02:14:11.187Z,16.33
2018-11-29T02:16:45.303Z,15.93
2018-11-29T02:19:18.545Z,12.97
2018-11-29T02:22:02.062Z,10.00
2018-11-29T02:24:34.386Z,11.40
2018-11-29T02:27:09.594Z,11.87
2018-11-29T02:29:42.628Z,13.80
2018-11-29T02:32:15.551Z,14.17
2018-11-29T02:34:48.451Z,17.17
2018-11-29T02:40:01.426Z,17.87
2018-11-29T02:42:34.058Z,16.30
2018-11-29T02:45:07.800Z,44.50
2018-11-29T02:47:42.042Z,21.23
2018-11-29T02:50:15.508Z,18.33
2018-11-29T02:52:48.536Z,14.57
2018-11-29T02:55:22.540Z,12.83
2018-11-29T02:57:55.539Z,14.57
2018-11-29T03:00:28.357Z,11.90
2018-11-29T03:03:01.400Z,12.47
2018-11-29T03:05:33.749Z,13.30
2018-11-29T03:08:07.729Z,15.97
2018-11-29T03:10:40.083Z,14.73
2018-11-29T03:13:12.980Z,16.55
2018-11-29T03:15:45.482Z,16.80
2018-11-29T03:18:18.521Z,18.40
2018-11-29T03:20:53.630Z,13.83
2018-11-29T03:23:25.971Z,16.10
2018-11-29T03:25:58.255Z,20.17
2018-11-29T03:28:30.447Z,54.77
2018-11-29T03:31:03.065Z,77.37
2018-11-29T03:33:35.474Z,144.90
2018-11-29T03:36:11.644Z,89.72
2018-11-29T03:38:45.077Z,31.53
2018-11-29T03:44:03.824Z,15.27
2018-11-29T03:46:36.272Z,15.67
2018-11-29T03:49:09.227Z,16.23
2018-11-29T03:51:42.911Z,15.93
2018-11-29T03:54:16.856Z,13.80
2018-11-29T03:56:49.543Z,14.20
2018-11-29T03:59:23.039Z,18.03
2018-11-29T04:01:57.228Z,14.40
2018-11-29T04:04:29.740Z,14.07
2018-11-29T04:07:02.857Z,18.93
2018-11-29T04:09:35.060Z,14.27
2018-11-29T04:12:11.933Z,15.63
2018-11-29T04:14:45.889Z,17.13
2018-11-29T04:17:19.289Z,17.77
2018-11-29T04:19:52.631Z,19.53
2018-11-29T04:22:25.675Z,18.47
2018-11-29T04:24:58.453Z,15.60
2018-11-29T04:27:31.377Z,14.87
2018-11-29T04:30:04.189Z,15.83
2018-11-29T04:32:40.977Z,15.60
2018-11-29T04:35:14.523Z,14.57
2018-11-29T04:37:47.306Z,17.07
2018-11-29T04:40:20.418Z,18.20
2018-11-29T04:42:53.997Z,15.73
2018-11-29T04:45:26.207Z,24.03
2018-11-29T04:47:59.271Z,112.03
2018-11-29T04:50:31.446Z,127.03
2018-11-29T04:53:03.766Z,76.00
2018-11-29T04:55:36.859Z,55.78
2018-11-29T04:58:10.540Z,41.60
2018-11-29T05:00:43.405Z,24.33
2018-11-29T05:03:16.105Z,26.53
2018-11-29T05:05:49.084Z,23.20
2018-11-29T05:08:21.339Z,28.40
2018-11-29T05:10:53.519Z,20.87
2018-11-29T05:13:26.301Z,16.47
2018-11-29T05:15:58.497Z,14.70
2018-11-29T05:18:31.100Z,15.50
2018-11-29T05:21:03.687Z,12.73
2018-11-29T05:23:36.855Z,11.67
2018-11-29T05:26:11.987Z,10.67
2018-11-29T05:28:45.257Z,11.60
2018-11-29T05:31:17.861Z,11.50
2018-11-29T05:33:52.041Z,11.13
2018-11-29T05:36:25.968Z,12.23
2018-11-29T05:38:58.230Z,11.73
2018-11-29T05:41:30.411Z,13.18
2018-11-29T05:44:03.905Z,15.03
2018-11-29T05:46:36.825Z,20.77
2018-11-29T05:49:09.858Z,42.60
2018-11-29T05:51:42.604Z,47.07
2018-11-29T05:54:15.387Z,71.07
2018-11-29T05:56:48.846Z,115.73
2018-11-29T05:59:21.428Z,116.90
2018-11-29T06:01:55.577Z,99.60
2018-11-29T06:04:29.499Z,44.10
2018-11-29T06:07:02.622Z,27.43
2018-11-29T06:09:35.756Z,18.70
2018-11-29T06:12:08.328Z,16.37
2018-11-29T06:14:40.970Z,13.60
2018-11-29T06:17:13.581Z,13.63
2018-11-29T06:19:46.278Z,10.97
2018-11-29T06:22:18.950Z,13.50
2018-11-29T06:24:52.314Z,13.47
2018-11-29T06:27:25.692Z,19.87
2018-11-29T06:29:58.988Z,15.37
2018-11-29T06:32:31.774Z,19.83
2018-11-29T06:35:05.139Z,15.90
2018-11-29T06:37:38.746Z,15.30
2018-11-29T06:40:14.343Z,12.80
2018-11-29T06:42:47.218Z,12.70
2018-11-29T06:45:22.633Z,13.43
2018-11-29T06:47:55.698Z,13.07
2018-11-29T06:50:29.640Z,13.43
2018-11-29T06:53:02.802Z,12.47
2018-11-29T06:55:35.119Z,12.77
2018-11-29T06:58:09.216Z,13.80
2018-11-29T07:00:42.111Z,15.75
2018-11-29T07:03:15.846Z,14.53
2018-11-29T07:05:48.645Z,13.30
2018-11-29T07:08:21.252Z,13.67
2018-11-29T07:10:54.450Z,14.97
2018-11-29T07:13:27.341Z,17.83
2018-11-29T07:16:00.638Z,16.07
2018-11-29T07:18:33.307Z,14.80
2018-11-29T07:21:18.830Z,14.93
2018-11-29T07:23:51.631Z,14.70
2018-11-29T07:26:24.114Z,14.93
2018-11-29T07:28:56.848Z,15.13
2018-11-29T07:31:29.800Z,13.50
2018-11-29T07:34:02.938Z,16.70
2018-11-29T07:36:35.359Z,14.77
2018-11-29T07:39:10.495Z,15.27
2018-11-29T07:41:43.065Z,16.57
2018-11-29T07:44:15.775Z,16.33
2018-11-29T07:46:48.652Z,15.20
2018-11-29T07:49:20.822Z,15.63
2018-11-29T07:51:53.484Z,15.83
2018-11-29T07:54:26.261Z,15.13
2018-11-29T07:57:02.877Z,15.10
2018-11-29T07:59:35.886Z,16.17
2018-11-29T08:02:08.164Z,15.07
2018-11-29T08:04:41.054Z,16.47
2018-11-29T08:07:14.571Z,14.77
2018-11-29T08:09:47.731Z,14.03
2018-11-29T08:12:21.547Z,15.07
2018-11-29T08:14:54.720Z,13.33
2018-11-29T08:17:26.956Z,14.87
2018-11-29T08:19:59.762Z,15.13
2018-11-29T08:22:32.052Z,13.87
2018-11-29T08:25:04.899Z,13.10
2018-11-29T08:27:37.995Z,12.40
2018-11-29T08:30:15.591Z,13.30
2018-11-29T08:32:49.602Z,19.12
2018-11-29T08:35:22.935Z,17.20
2018-11-29T08:37:55.768Z,16.10
2018-11-29T08:40:27.998Z,16.10
2018-11-29T08:43:02.016Z,15.43
2018-11-29T08:45:34.234Z,14.53
2018-11-29T08:48:06.753Z,16.33
2018-11-29T08:50:38.961Z,14.20
2018-11-29T08:53:12.364Z,16.70
2018-11-29T08:55:45.394Z,18.60
2018-11-29T08:58:18.988Z,17.30
2018-11-29T09:00:51.439Z,20.27
2018-11-29T09:03:25.805Z,15.77
2018-11-29T09:05:58.400Z,15.17
2018-11-29T09:08:30.954Z,19.40
2018-11-29T09:11:03.293Z,20.27
2018-11-29T09:13:35.517Z,16.93
2018-11-29T09:16:07.922Z,17.73
2018-11-29T09:18:40.900Z,15.07
2018-11-29T09:21:13.151Z,16.07
2018-11-29T09:23:46.678Z,12.47
2018-11-29T09:26:19.106Z,19.87
2018-11-29T09:28:51.535Z,17.87
2018-11-29T09:31:23.863Z,19.17
2018-11-29T09:33:56.052Z,18.23
2018-11-29T09:36:28.253Z,16.13
2018-11-29T09:39:02.698Z,16.27
2018-11-29T09:41:35.391Z,16.27
2018-11-29T09:44:07.698Z,15.80
2018-11-29T09:46:39.961Z,16.17
2018-11-29T09:49:12.169Z,19.57
2018-11-29T09:51:44.467Z,17.00
2018-11-29T09:54:16.681Z,17.83
2018-11-29T09:56:49.459Z,19.57
2018-11-29T09:59:22.802Z,18.10
2018-11-29T10:01:56.230Z,15.33
2018-11-29T10:04:28.501Z,16.33
2018-11-29T10:07:03.280Z,16.50
2018-11-29T10:09:36.678Z,15.57
2018-11-29T10:12:09.446Z,20.93
2018-11-29T10:14:41.700Z,20.87
2018-11-29T10:17:16.141Z,20.13
2018-11-29T10:19:49.016Z,17.77
2018-11-29T10:22:23.613Z,18.60
2018-11-29T10:24:56.821Z,24.13
2018-11-29T10:27:30.313Z,17.17
2018-11-29T10:30:04.024Z,19.93
2018-11-29T10:32:36.416Z,22.67
2018-11-29T10:35:11.779Z,24.47
2018-11-29T10:37:44.443Z,22.63
2018-11-29T10:40:16.711Z,19.27
2018-11-29T10:42:49.421Z,24.30
2018-11-29T10:45:22.654Z,22.53
2018-11-29T10:47:56.677Z,23.62
2018-11-29T10:50:29.887Z,23.77
2018-11-29T10:53:03.403Z,19.20
2018-11-29T10:55:36.298Z,20.17
2018-11-29T10:58:09.039Z,24.50
2018-11-29T11:00:46.256Z,24.60
2018-11-29T11:03:21.371Z,24.57
2018-11-29T11:05:55.048Z,26.83
2018-11-29T11:08:28.239Z,20.70
2018-11-29T11:11:04.808Z,19.10
2018-11-29T11:13:38.377Z,20.50
2018-11-29T11:16:11.501Z,21.70
2018-11-29T11:18:43.776Z,23.17
2018-11-29T11:21:16.024Z,23.90
2018-11-29T11:23:48.606Z,22.33
2018-11-29T11:26:22.295Z,28.83
2018-11-29T11:28:55.672Z,24.80
2018-11-29T11:31:31.027Z,21.83
2018-11-29T11:34:01.002Z,25.27
2018-11-29T11:36:34.205Z,19.77
2018-11-29T11:39:09.099Z,21.33
2018-11-29T11:41:43.446Z,29.77
2018-11-29T11:44:17.435Z,23.50
2018-11-29T11:46:52.001Z,21.13
2018-11-29T11:49:24.248Z,20.77
2018-11-29T11:51:58.164Z,20.93
2018-11-29T11:54:34.975Z,19.13
2018-11-29T11:57:07.642Z,21.95
2018-11-29T11:59:40.303Z,30.90
2018-11-29T12:02:13.303Z,23.40
2018-11-29T12:04:48.739Z,22.77
2018-11-29T12:07:18.436Z,17.07
2018-11-29T12:09:52.339Z,25.53
2018-11-29T12:12:36.850Z,20.87
2018-11-29T12:15:12.381Z,24.43
2018-11-29T12:17:45.837Z,21.97
2018-11-29T12:20:25.380Z,25.63
2018-11-29T12:23:04.564Z,20.47
2018-11-29T12:25:37.390Z,29.00
2018-11-29T12:28:10.589Z,28.80
2018-11-29T12:30:49.558Z,33.28
2018-11-29T12:33:22.480Z,31.27
2018-11-29T12:35:56.930Z,27.40
2018-11-29T12:38:31.835Z,26.97
2018-11-29T12:41:04.153Z,27.27
2018-11-29T12:43:37.104Z,25.25
2018-11-29T12:46:11.098Z,25.60
2018-11-29T12:48:43.410Z,20.83
2018-11-29T12:51:16.786Z,24.23
2018-11-29T12:53:49.562Z,20.27
2018-11-29T12:56:22.151Z,22.53
2018-11-29T12:58:59.977Z,19.20
2018-11-29T13:01:34.223Z,23.20
2018-11-29T13:04:06.891Z,20.50
2018-11-29T13:06:39.354Z,24.63
2018-11-29T13:09:14.079Z,23.47
2018-11-29T13:11:46.661Z,26.80
2018-11-29T13:14:19.177Z,19.33
2018-11-29T13:16:52.087Z,26.82
2018-11-29T13:19:35.713Z,25.30
2018-11-29T13:22:24.196Z,24.63
2018-11-29T13:24:56.637Z,27.37
2018-11-29T13:27:38.881Z,20.37
2018-11-29T13:30:14.641Z,16.53
2018-11-29T13:32:47.292Z,14.67
2018-11-29T13:35:26.694Z,17.50
2018-11-29T13:38:18.124Z,22.60
2018-11-29T13:40:56.238Z,20.40
2018-11-29T13:43:28.451Z,17.30
2018-11-29T13:46:00.766Z,15.97
2018-11-29T13:48:33.032Z,17.50
2018-11-29T13:51:15.228Z,18.33
2018-11-29T13:53:48.453Z,20.57
2018-11-29T13:56:21.688Z,21.27
2018-11-29T14:01:33.999Z,17.02
2018-11-29T14:04:07.481Z,19.07
2018-11-29T14:06:40.291Z,20.83
2018-11-29T14:09:14.031Z,42.87
2018-11-29T14:11:52.752Z,28.37
2018-11-29T14:14:24.980Z,32.38
2018-11-29T14:17:01.799Z,23.97
2018-11-29T14:19:38.125Z,20.93
2018-11-29T14:22:11.359Z,24.57
2018-11-29T14:24:43.779Z,100.25
2018-11-29T14:27:17.745Z,28.43
2018-11-29T14:29:52.383Z,79.87
2018-11-29T14:32:33.673Z,46.57
2018-11-29T14:44:21.451Z,22.27
2018-11-29T14:46:53.989Z,20.77
2018-11-29T14:49:35.981Z,22.37
2018-11-29T15:08:53.993Z,23.20
2018-11-29T15:11:29.324Z,45.20
2018-11-29T15:14:08.924Z,23.67
2018-11-29T15:21:29.598Z,28.17
2018-11-29T15:24:26.073Z,23.77
2018-11-29T15:27:13.320Z,31.43
2018-11-29T15:29:46.475Z,18.50
2018-11-29T15:32:27.175Z,29.40
2018-11-29T15:35:00.710Z,25.20
2018-11-29T15:37:33.145Z,22.50
2018-11-29T15:40:05.670Z,27.03
2018-11-29T15:42:38.785Z,22.83
2018-11-29T15:45:13.890Z,22.05
2018-11-29T15:47:46.314Z,22.67
2018-11-29T15:50:36.999Z,20.37
2018-11-29T15:53:30.094Z,28.47
2018-11-29T15:56:21.400Z,21.07
2018-11-29T15:59:07.713Z,23.57
2018-11-29T16:02:05.071Z,30.30
2018-11-29T16:08:18.996Z,20.87
2018-11-29T16:17:16.750Z,21.20
2018-11-29T16:19:49.667Z,26.43
2018-11-29T16:22:27.618Z,19.53
2018-11-29T16:25:00.232Z,23.43
2018-11-29T16:27:36.753Z,23.50
2018-11-29T16:30:22.422Z,25.07
2018-11-29T16:33:02.312Z,24.13
2018-11-29T16:35:37.218Z,25.40
2018-11-29T16:38:12.559Z,23.97
2018-11-29T16:40:51.063Z,25.00
2018-11-29T16:43:24.265Z,28.43
2018-11-29T16:46:14.651Z,28.93
2018-11-29T16:48:47.016Z,27.37
2018-11-29T16:51:31.743Z,28.30
2018-11-29T16:54:05.863Z,25.05
2018-11-29T16:56:40.518Z,22.80
2018-11-29T16:59:13.662Z,23.73
2018-11-29T17:01:47.414Z,27.63
2018-11-29T17:04:20.362Z,30.70
2018-11-29T17:06:53.285Z,21.17
2018-11-29T17:09:25.631Z,22.03
2018-11-29T17:14:05.511Z,21.90
2018-11-29T17:16:37.852Z,21.42
2018-11-29T17:19:10.588Z,23.87
2018-11-29T17:21:49.017Z,23.10
2018-11-29T17:24:22.947Z,25.43
2018-11-29T17:26:56.110Z,20.33
2018-11-29T17:29:29.955Z,25.00
2018-11-29T17:32:02.694Z,20.73
2018-11-29T17:34:36.176Z,20.70
2018-11-29T17:37:09.990Z,26.70
2018-11-29T17:39:42.249Z,19.82
2018-11-29T17:42:15.038Z,23.07
2018-11-29T17:44:48.148Z,24.13
2018-11-29T17:47:22.259Z,25.30
2018-11-29T17:49:55.712Z,26.13
2018-11-29T17:52:28.986Z,24.00
2018-11-29T17:55:06.320Z,32.63
2018-11-29T17:57:39.256Z,21.70
2018-11-29T18:00:16.833Z,21.47
2018-11-29T18:02:49.928Z,27.20
2018-11-29T18:05:22.447Z,21.60
2018-11-29T18:07:54.968Z,28.27
2018-11-29T18:10:31.370Z,30.47
2018-11-29T18:13:10.008Z,28.10
2018-11-29T18:15:43.337Z,28.80
2018-11-29T18:18:15.916Z,25.87
2018-11-29T18:20:48.798Z,23.57
2018-11-29T18:23:23.335Z,23.37
2018-11-29T18:25:55.520Z,24.15
2018-11-29T18:28:28.802Z,24.27
2018-11-29T18:31:03.478Z,26.67
2018-11-29T18:33:36.298Z,23.70
2018-11-29T18:36:14.188Z,28.27
2018-11-29T18:38:44.222Z,26.70
2018-11-29T18:41:28.165Z,32.13
2018-11-29T18:44:00.800Z,26.00
2018-11-29T18:46:34.322Z,24.85
2018-11-29T18:49:11.309Z,25.67
2018-11-29T18:51:46.796Z,22.87
2018-11-29T18:54:19.550Z,24.80
2018-11-29T18:56:53.199Z,25.10
2018-11-29T18:59:25.762Z,27.37
2018-11-29T19:01:58.204Z,23.47
2018-11-29T19:04:30.792Z,22.47
2018-11-29T19:07:03.279Z,29.87
2018-11-29T19:09:35.495Z,30.50
2018-11-29T19:12:13.511Z,24.63
2018-11-29T19:44:56.839Z,26.43
2018-11-29T20:00:37.507Z,29.33
2018-11-29T20:03:21.394Z,27.70
2018-11-29T20:05:54.042Z,28.07
2018-11-29T20:08:26.708Z,29.53
2018-11-29T20:11:03.559Z,29.60
2018-11-29T20:13:38.380Z,27.90
2018-11-29T20:16:11.149Z,23.80
2018-11-29T20:18:44.521Z,27.67
2018-11-29T20:21:18.354Z,25.13
2018-11-29T20:23:51.457Z,25.93
2018-11-29T20:26:24.667Z,30.70
2018-11-29T20:28:57.781Z,27.73
2018-11-29T20:31:39.813Z,27.57
2018-11-29T20:34:13.031Z,31.10
2018-11-29T20:36:46.138Z,29.40
2018-11-29T20:39:21.797Z,30.50
2018-11-29T20:41:54.891Z,30.43
2018-11-29T20:44:27.866Z,32.23
2018-11-29T20:47:00.977Z,30.63
2018-11-29T20:49:33.799Z,46.37
2018-11-29T20:52:10.851Z,28.77
2018-11-29T20:54:43.882Z,28.30
2018-11-29T20:57:17.691Z,24.20
2018-11-29T20:59:49.974Z,32.43
2018-11-29T21:02:28.296Z,27.30
2018-11-29T21:05:00.853Z,75.80
2018-11-29T21:07:40.250Z,30.50
2018-11-29T21:10:32.211Z,65.53
2018-11-29T21:13:42.270Z,23.77
2018-11-29T21:16:20.075Z,29.77
2018-11-29T21:18:52.407Z,46.07
2018-11-29T21:21:27.816Z,97.23
2018-11-29T21:24:05.246Z,19.83
2018-11-29T21:26:38.281Z,22.60
2018-11-29T21:29:12.360Z,24.67
2018-11-29T21:31:45.067Z,20.37
2018-11-29T21:34:18.872Z,21.47
2018-11-29T21:36:51.497Z,21.23
2018-11-29T21:39:25.133Z,18.23
2018-11-29T21:41:58.997Z,18.17
2018-11-29T21:44:33.488Z,23.23
2018-11-29T21:47:06.358Z,17.90
2018-11-29T21:49:40.537Z,19.55
2018-11-29T21:52:18.211Z,18.57
2018-11-29T21:54:51.101Z,16.23
2018-11-29T21:57:23.842Z,16.23
2018-11-29T21:59:58.589Z,16.47
2018-11-29T22:02:31.567Z,18.90
2018-11-29T22:05:05.044Z,17.23
2018-11-29T22:07:38.673Z,14.10
2018-11-29T22:10:21.942Z,16.33
2018-11-29T22:13:00.738Z,17.67
2018-11-29T22:15:32.693Z,14.53
2018-11-29T22:18:15.729Z,14.53
2018-11-29T22:20:48.613Z,14.63
2018-11-29T22:23:21.460Z,15.10
2018-11-29T22:25:54.575Z,14.77
2018-11-29T22:28:29.049Z,15.07
2018-11-29T22:31:12.262Z,14.73
2018-11-29T22:33:45.870Z,15.60
2018-11-29T22:36:18.552Z,14.73
2018-11-29T22:38:51.140Z,16.70
2018-11-29T22:41:24.739Z,19.17
2018-11-29T22:43:58.086Z,14.37
2018-11-29T22:46:30.966Z,15.97
2018-11-29T22:49:06.573Z,17.20
2018-11-29T22:51:39.377Z,16.10
2018-11-29T22:54:13.122Z,18.67
2018-11-29T22:56:45.817Z,19.10
2018-11-29T22:59:18.456Z,24.23
2018-11-29T23:01:51.224Z,20.33
2018-11-29T23:04:24.006Z,19.90
2018-11-29T23:06:57.103Z,20.63
2018-11-29T23:09:29.650Z,21.00
2018-11-29T23:12:03.036Z,19.67
2018-11-29T23:14:37.905Z,18.97
2018-11-29T23:17:11.123Z,19.70
2018-11-29T23:19:44.477Z,23.47
2018-11-29T23:22:17.242Z,23.53
2018-11-29T23:24:51.847Z,24.97
2018-11-29T23:27:24.732Z,26.57
2018-11-29T23:29:57.427Z,27.87
2018-11-29T23:32:30.291Z,24.07
2018-11-29T23:35:03.293Z,24.03
2018-11-29T23:37:37.344Z,25.67
2018-11-29T23:40:13.102Z,27.57
2018-11-29T23:42:46.094Z,29.20
2018-11-29T23:45:19.130Z,32.80
2018-11-29T23:47:53.131Z,33.97
2018-11-29T23:50:26.566Z,33.33
2018-11-29T23:52:59.236Z,35.60
2018-11-29T23:55:33.319Z,37.47
2018-11-29T23:58:07.371Z,37.53
